sensor_id;sensor_type;location;lat;lon;timestamp;P1;durP1;ratioP1;P2;durP2;ratioP2
29908;SDS011;36247;51.952;6.146;2023-02-15T00:01:47;52.80;;;26.05;;
29908;SDS011;36247;51.952;6.146;2023-02-15T00:04:14;67.40;;;29.77;;
29908;SDS011;36247;51.952;6.146;2023-02-15T00:06:41;61.92;;;30.85;;
29908;SDS011;36247;51.952;6.146;2023-02-15T00:09:07;65.78;;;31.27;;
29908;SDS011;36247;51.952;6.146;2023-02-15T00:11:34;58.17;;;28.70;;
29908;SDS011;36247;51.952;6.146;2023-02-15T00:14:07;53.50;;;28.08;;
29908;SDS011;36247;51.952;6.146;2023-02-15T00:16:37;52.53;;;28.25;;
29908;SDS011;36247;51.952;6.146;2023-02-15T00:19:03;60.35;;;30.38;;
29908;SDS011;36247;51.952;6.146;2023-02-15T00:21:30;75.97;;;36.13;;
29908;SDS011;36247;51.952;6.146;2023-02-15T00:23:57;89.38;;;37.40;;
29908;SDS011;36247;51.952;6.146;2023-02-15T00:26:24;63.17;;;34.53;;
29908;SDS011;36247;51.952;6.146;2023-02-15T00:28:50;70.25;;;36.85;;
29908;SDS011;36247;51.952;6.146;2023-02-15T00:31:18;68.18;;;33.45;;
29908;SDS011;36247;51.952;6.146;2023-02-15T00:33:43;66.43;;;30.05;;
29908;SDS011;36247;51.952;6.146;2023-02-15T00:36:09;54.20;;;29.67;;
29908;SDS011;36247;51.952;6.146;2023-02-15T00:38:35;58.55;;;29.55;;
29908;SDS011;36247;51.952;6.146;2023-02-15T00:41:01;60.15;;;30.20;;
29908;SDS011;36247;51.952;6.146;2023-02-15T00:43:29;52.63;;;28.85;;
29908;SDS011;36247;51.952;6.146;2023-02-15T00:45:55;53.63;;;30.05;;
29908;SDS011;36247;51.952;6.146;2023-02-15T00:48:21;54.83;;;30.45;;
29908;SDS011;36247;51.952;6.146;2023-02-15T00:50:51;53.15;;;28.33;;
29908;SDS011;36247;51.952;6.146;2023-02-15T00:53:19;47.47;;;27.73;;
29908;SDS011;36247;51.952;6.146;2023-02-15T00:55:46;51.53;;;27.27;;
29908;SDS011;36247;51.952;6.146;2023-02-15T00:58:12;56.92;;;28.10;;
29908;SDS011;36247;51.952;6.146;2023-02-15T01:00:38;55.60;;;29.30;;
29908;SDS011;36247;51.952;6.146;2023-02-15T01:03:06;51.85;;;27.55;;
29908;SDS011;36247;51.952;6.146;2023-02-15T01:05:32;52.80;;;27.98;;
29908;SDS011;36247;51.952;6.146;2023-02-15T01:07:57;44.08;;;27.75;;
29908;SDS011;36247;51.952;6.146;2023-02-15T01:10:24;53.42;;;28.02;;
29908;SDS011;36247;51.952;6.146;2023-02-15T01:12:50;56.33;;;30.48;;
29908;SDS011;36247;51.952;6.146;2023-02-15T01:15:16;53.55;;;29.80;;
29908;SDS011;36247;51.952;6.146;2023-02-15T01:17:41;45.13;;;28.98;;
29908;SDS011;36247;51.952;6.146;2023-02-15T01:20:09;37.55;;;24.15;;
29908;SDS011;36247;51.952;6.146;2023-02-15T01:22:34;43.28;;;25.92;;
29908;SDS011;36247;51.952;6.146;2023-02-15T01:25:00;44.35;;;25.33;;
29908;SDS011;36247;51.952;6.146;2023-02-15T01:27:28;37.65;;;23.42;;
29908;SDS011;36247;51.952;6.146;2023-02-15T01:29:55;37.25;;;24.23;;
29908;SDS011;36247;51.952;6.146;2023-02-15T01:32:21;51.50;;;29.63;;
29908;SDS011;36247;51.952;6.146;2023-02-15T01:34:46;46.42;;;27.95;;
29908;SDS011;36247;51.952;6.146;2023-02-15T01:37:12;58.50;;;29.30;;
29908;SDS011;36247;51.952;6.146;2023-02-15T01:39:37;50.10;;;27.30;;
29908;SDS011;36247;51.952;6.146;2023-02-15T01:42:03;35.83;;;23.20;;
29908;SDS011;36247;51.952;6.146;2023-02-15T01:47:16;31.35;;;21.25;;
29908;SDS011;36247;51.952;6.146;2023-02-15T01:49:46;32.72;;;22.10;;
29908;SDS011;36247;51.952;6.146;2023-02-15T01:52:14;38.08;;;24.67;;
29908;SDS011;36247;51.952;6.146;2023-02-15T01:54:42;27.90;;;21.00;;
29908;SDS011;36247;51.952;6.146;2023-02-15T01:57:12;32.30;;;21.52;;
29908;SDS011;36247;51.952;6.146;2023-02-15T01:59:42;35.65;;;24.13;;
29908;SDS011;36247;51.952;6.146;2023-02-15T02:02:11;32.58;;;21.65;;
29908;SDS011;36247;51.952;6.146;2023-02-15T02:04:50;33.17;;;22.00;;
29908;SDS011;36247;51.952;6.146;2023-02-15T02:07:19;30.95;;;20.30;;
29908;SDS011;36247;51.952;6.146;2023-02-15T02:09:48;32.55;;;20.98;;
29908;SDS011;36247;51.952;6.146;2023-02-15T02:12:14;42.95;;;24.25;;
29908;SDS011;36247;51.952;6.146;2023-02-15T02:14:42;44.67;;;25.17;;
29908;SDS011;36247;51.952;6.146;2023-02-15T02:19:51;44.83;;;24.40;;
29908;SDS011;36247;51.952;6.146;2023-02-15T02:28:51;32.75;;;21.73;;
29908;SDS011;36247;51.952;6.146;2023-02-15T02:34:33;38.30;;;22.48;;
29908;SDS011;36247;51.952;6.146;2023-02-15T02:39:49;39.35;;;23.63;;
29908;SDS011;36247;51.952;6.146;2023-02-15T02:42:25;40.38;;;24.40;;
29908;SDS011;36247;51.952;6.146;2023-02-15T02:45:03;35.95;;;23.25;;
29908;SDS011;36247;51.952;6.146;2023-02-15T02:47:51;34.95;;;22.67;;
29908;SDS011;36247;51.952;6.146;2023-02-15T02:50:22;38.30;;;22.58;;
29908;SDS011;36247;51.952;6.146;2023-02-15T02:52:51;31.00;;;20.27;;
29908;SDS011;36247;51.952;6.146;2023-02-15T02:55:23;33.47;;;21.35;;
29908;SDS011;36247;51.952;6.146;2023-02-15T02:57:55;35.17;;;21.63;;
29908;SDS011;36247;51.952;6.146;2023-02-15T03:00:50;34.10;;;21.33;;
29908;SDS011;36247;51.952;6.146;2023-02-15T03:03:27;40.40;;;22.98;;
29908;SDS011;36247;51.952;6.146;2023-02-15T03:06:18;40.88;;;22.83;;
29908;SDS011;36247;51.952;6.146;2023-02-15T03:08:54;37.67;;;21.98;;
29908;SDS011;36247;51.952;6.146;2023-02-15T03:11:25;45.53;;;23.30;;
29908;SDS011;36247;51.952;6.146;2023-02-15T03:13:51;48.00;;;25.20;;
29908;SDS011;36247;51.952;6.146;2023-02-15T03:16:18;67.28;;;28.60;;
29908;SDS011;36247;51.952;6.146;2023-02-15T03:18:52;72.28;;;30.00;;
29908;SDS011;36247;51.952;6.146;2023-02-15T03:21:33;86.68;;;30.65;;
29908;SDS011;36247;51.952;6.146;2023-02-15T03:24:13;186.40;;;35.30;;
29908;SDS011;36247;51.952;6.146;2023-02-15T03:26:43;91.60;;;33.15;;
29908;SDS011;36247;51.952;6.146;2023-02-15T03:29:12;114.18;;;36.47;;
29908;SDS011;36247;51.952;6.146;2023-02-15T03:31:41;95.90;;;36.13;;
29908;SDS011;36247;51.952;6.146;2023-02-15T03:34:10;74.28;;;34.00;;
29908;SDS011;36247;51.952;6.146;2023-02-15T03:36:58;65.00;;;30.90;;
29908;SDS011;36247;51.952;6.146;2023-02-15T03:39:38;51.63;;;27.58;;
29908;SDS011;36247;51.952;6.146;2023-02-15T03:42:44;48.53;;;24.20;;
29908;SDS011;36247;51.952;6.146;2023-02-15T03:45:11;64.30;;;32.25;;
29908;SDS011;36247;51.952;6.146;2023-02-15T03:47:46;71.60;;;31.15;;
29908;SDS011;36247;51.952;6.146;2023-02-15T03:50:19;58.92;;;28.42;;
29908;SDS011;36247;51.952;6.146;2023-02-15T03:53:24;67.22;;;30.13;;
29908;SDS011;36247;51.952;6.146;2023-02-15T03:55:53;61.65;;;28.90;;
29908;SDS011;36247;51.952;6.146;2023-02-15T03:58:19;60.20;;;28.20;;
29908;SDS011;36247;51.952;6.146;2023-02-15T04:01:04;56.90;;;27.48;;
29908;SDS011;36247;51.952;6.146;2023-02-15T04:03:58;52.03;;;26.30;;
29908;SDS011;36247;51.952;6.146;2023-02-15T04:06:28;48.65;;;25.52;;
29908;SDS011;36247;51.952;6.146;2023-02-15T04:08:53;51.00;;;27.00;;
29908;SDS011;36247;51.952;6.146;2023-02-15T04:11:37;51.92;;;26.10;;
29908;SDS011;36247;51.952;6.146;2023-02-15T04:14:02;46.97;;;24.20;;
29908;SDS011;36247;51.952;6.146;2023-02-15T04:16:48;49.47;;;25.08;;
29908;SDS011;36247;51.952;6.146;2023-02-15T04:19:14;53.17;;;26.83;;
29908;SDS011;36247;51.952;6.146;2023-02-15T04:21:58;44.60;;;24.73;;
29908;SDS011;36247;51.952;6.146;2023-02-15T04:24:42;42.83;;;23.40;;
29908;SDS011;36247;51.952;6.146;2023-02-15T04:27:25;45.38;;;24.85;;
29908;SDS011;36247;51.952;6.146;2023-02-15T04:29:51;50.45;;;25.30;;
29908;SDS011;36247;51.952;6.146;2023-02-15T04:32:16;46.15;;;24.48;;
29908;SDS011;36247;51.952;6.146;2023-02-15T04:34:41;41.95;;;21.90;;
29908;SDS011;36247;51.952;6.146;2023-02-15T04:37:07;42.60;;;23.67;;
29908;SDS011;36247;51.952;6.146;2023-02-15T04:39:32;43.63;;;23.50;;
29908;SDS011;36247;51.952;6.146;2023-02-15T04:41:58;49.10;;;25.63;;
29908;SDS011;36247;51.952;6.146;2023-02-15T04:44:23;42.40;;;24.38;;
29908;SDS011;36247;51.952;6.146;2023-02-15T04:46:48;42.80;;;23.60;;
29908;SDS011;36247;51.952;6.146;2023-02-15T04:49:14;55.95;;;27.48;;
29908;SDS011;36247;51.952;6.146;2023-02-15T04:51:39;54.80;;;27.52;;
29908;SDS011;36247;51.952;6.146;2023-02-15T04:54:05;52.72;;;26.33;;
29908;SDS011;36247;51.952;6.146;2023-02-15T04:56:30;78.47;;;26.38;;
29908;SDS011;36247;51.952;6.146;2023-02-15T04:58:58;77.43;;;27.02;;
29908;SDS011;36247;51.952;6.146;2023-02-15T05:01:23;50.45;;;26.40;;
29908;SDS011;36247;51.952;6.146;2023-02-15T05:03:48;53.30;;;25.90;;
29908;SDS011;36247;51.952;6.146;2023-02-15T05:06:14;53.70;;;27.73;;
29908;SDS011;36247;51.952;6.146;2023-02-15T05:08:39;46.78;;;26.85;;
29908;SDS011;36247;51.952;6.146;2023-02-15T05:11:04;42.35;;;23.50;;
29908;SDS011;36247;51.952;6.146;2023-02-15T05:13:30;32.95;;;21.13;;
29908;SDS011;36247;51.952;6.146;2023-02-15T05:15:55;36.63;;;22.83;;
29908;SDS011;36247;51.952;6.146;2023-02-15T05:18:21;41.25;;;23.48;;
29908;SDS011;36247;51.952;6.146;2023-02-15T05:20:47;42.55;;;23.15;;
29908;SDS011;36247;51.952;6.146;2023-02-15T05:23:12;54.47;;;28.52;;
29908;SDS011;36247;51.952;6.146;2023-02-15T05:25:38;49.42;;;25.83;;
29908;SDS011;36247;51.952;6.146;2023-02-15T05:28:23;38.33;;;21.10;;
29908;SDS011;36247;51.952;6.146;2023-02-15T05:30:51;40.63;;;23.42;;
29908;SDS011;36247;51.952;6.146;2023-02-15T05:33:27;37.10;;;21.58;;
29908;SDS011;36247;51.952;6.146;2023-02-15T05:35:52;38.25;;;22.45;;
29908;SDS011;36247;51.952;6.146;2023-02-15T05:38:17;44.83;;;23.85;;
29908;SDS011;36247;51.952;6.146;2023-02-15T05:40:43;42.92;;;23.42;;
29908;SDS011;36247;51.952;6.146;2023-02-15T05:43:08;46.70;;;24.10;;
29908;SDS011;36247;51.952;6.146;2023-02-15T05:45:33;45.92;;;24.15;;
29908;SDS011;36247;51.952;6.146;2023-02-15T05:47:59;48.47;;;24.77;;
29908;SDS011;36247;51.952;6.146;2023-02-15T05:50:24;46.00;;;24.02;;
29908;SDS011;36247;51.952;6.146;2023-02-15T05:52:51;45.17;;;24.15;;
29908;SDS011;36247;51.952;6.146;2023-02-15T05:55:16;41.15;;;23.58;;
29908;SDS011;36247;51.952;6.146;2023-02-15T05:57:42;41.05;;;23.80;;
29908;SDS011;36247;51.952;6.146;2023-02-15T06:00:08;36.72;;;21.13;;
29908;SDS011;36247;51.952;6.146;2023-02-15T06:02:37;38.63;;;21.45;;
29908;SDS011;36247;51.952;6.146;2023-02-15T06:05:03;43.50;;;22.50;;
29908;SDS011;36247;51.952;6.146;2023-02-15T06:07:30;41.00;;;21.85;;
29908;SDS011;36247;51.952;6.146;2023-02-15T06:09:57;43.92;;;23.30;;
29908;SDS011;36247;51.952;6.146;2023-02-15T06:12:22;35.95;;;20.75;;
29908;SDS011;36247;51.952;6.146;2023-02-15T06:14:47;40.63;;;22.60;;
29908;SDS011;36247;51.952;6.146;2023-02-15T06:17:13;42.22;;;22.40;;
29908;SDS011;36247;51.952;6.146;2023-02-15T06:19:38;42.47;;;21.88;;
29908;SDS011;36247;51.952;6.146;2023-02-15T06:22:04;43.78;;;21.92;;
29908;SDS011;36247;51.952;6.146;2023-02-15T06:24:31;42.42;;;20.55;;
29908;SDS011;36247;51.952;6.146;2023-02-15T06:26:56;44.90;;;22.80;;
29908;SDS011;36247;51.952;6.146;2023-02-15T06:29:22;40.80;;;23.55;;
29908;SDS011;36247;51.952;6.146;2023-02-15T06:31:47;46.85;;;24.63;;
29908;SDS011;36247;51.952;6.146;2023-02-15T06:34:12;43.75;;;23.92;;
29908;SDS011;36247;51.952;6.146;2023-02-15T06:36:38;43.08;;;22.85;;
29908;SDS011;36247;51.952;6.146;2023-02-15T06:39:03;45.78;;;24.35;;
29908;SDS011;36247;51.952;6.146;2023-02-15T06:41:29;48.78;;;25.63;;
29908;SDS011;36247;51.952;6.146;2023-02-15T06:43:54;43.90;;;26.67;;
29908;SDS011;36247;51.952;6.146;2023-02-15T06:46:20;49.03;;;26.27;;
29908;SDS011;36247;51.952;6.146;2023-02-15T06:48:45;51.38;;;27.30;;
29908;SDS011;36247;51.952;6.146;2023-02-15T06:51:11;52.25;;;25.73;;
29908;SDS011;36247;51.952;6.146;2023-02-15T06:53:36;54.13;;;26.23;;
29908;SDS011;36247;51.952;6.146;2023-02-15T06:56:02;50.88;;;25.35;;
29908;SDS011;36247;51.952;6.146;2023-02-15T06:58:40;53.97;;;25.45;;
29908;SDS011;36247;51.952;6.146;2023-02-15T07:01:07;50.13;;;24.52;;
29908;SDS011;36247;51.952;6.146;2023-02-15T07:03:33;43.90;;;23.20;;
29908;SDS011;36247;51.952;6.146;2023-02-15T07:06:00;49.30;;;24.13;;
29908;SDS011;36247;51.952;6.146;2023-02-15T07:08:27;46.92;;;22.92;;
29908;SDS011;36247;51.952;6.146;2023-02-15T07:10:53;51.45;;;24.45;;
29908;SDS011;36247;51.952;6.146;2023-02-15T07:13:19;44.83;;;23.98;;
29908;SDS011;36247;51.952;6.146;2023-02-15T07:15:46;45.17;;;24.95;;
29908;SDS011;36247;51.952;6.146;2023-02-15T07:18:12;48.35;;;25.77;;
29908;SDS011;36247;51.952;6.146;2023-02-15T07:20:38;47.13;;;24.27;;
29908;SDS011;36247;51.952;6.146;2023-02-15T07:23:06;46.08;;;24.38;;
29908;SDS011;36247;51.952;6.146;2023-02-15T07:25:31;52.15;;;27.30;;
29908;SDS011;36247;51.952;6.146;2023-02-15T07:27:57;53.83;;;26.85;;
29908;SDS011;36247;51.952;6.146;2023-02-15T07:30:24;46.25;;;24.83;;
29908;SDS011;36247;51.952;6.146;2023-02-15T07:32:49;44.63;;;23.90;;
29908;SDS011;36247;51.952;6.146;2023-02-15T07:35:33;50.05;;;25.17;;
29908;SDS011;36247;51.952;6.146;2023-02-15T07:37:59;48.80;;;25.52;;
29908;SDS011;36247;51.952;6.146;2023-02-15T07:40:25;50.78;;;24.80;;
29908;SDS011;36247;51.952;6.146;2023-02-15T07:42:51;54.00;;;26.58;;
29908;SDS011;36247;51.952;6.146;2023-02-15T07:45:18;48.45;;;25.00;;
29908;SDS011;36247;51.952;6.146;2023-02-15T07:47:44;47.50;;;26.50;;
29908;SDS011;36247;51.952;6.146;2023-02-15T07:50:09;57.05;;;28.52;;
29908;SDS011;36247;51.952;6.146;2023-02-15T07:52:35;52.00;;;27.17;;
29908;SDS011;36247;51.952;6.146;2023-02-15T07:55:00;52.67;;;26.55;;
29908;SDS011;36247;51.952;6.146;2023-02-15T07:57:25;52.97;;;27.67;;
29908;SDS011;36247;51.952;6.146;2023-02-15T07:59:51;55.30;;;28.02;;
29908;SDS011;36247;51.952;6.146;2023-02-15T08:02:16;61.25;;;30.85;;
29908;SDS011;36247;51.952;6.146;2023-02-15T08:04:42;59.50;;;31.75;;
29908;SDS011;36247;51.952;6.146;2023-02-15T08:07:07;62.45;;;29.77;;
29908;SDS011;36247;51.952;6.146;2023-02-15T08:09:32;63.13;;;30.08;;
29908;SDS011;36247;51.952;6.146;2023-02-15T08:11:58;55.28;;;28.58;;
29908;SDS011;36247;51.952;6.146;2023-02-15T08:14:23;56.42;;;29.58;;
29908;SDS011;36247;51.952;6.146;2023-02-15T08:16:50;57.17;;;29.73;;
29908;SDS011;36247;51.952;6.146;2023-02-15T08:21:51;55.45;;;30.63;;
29908;SDS011;36247;51.952;6.146;2023-02-15T08:24:25;61.17;;;30.67;;
29908;SDS011;36247;51.952;6.146;2023-02-15T08:26:55;60.40;;;29.23;;
29908;SDS011;36247;51.952;6.146;2023-02-15T08:29:22;58.70;;;29.33;;
29908;SDS011;36247;51.952;6.146;2023-02-15T08:31:52;58.22;;;30.30;;
29908;SDS011;36247;51.952;6.146;2023-02-15T08:34:18;54.72;;;29.58;;
29908;SDS011;36247;51.952;6.146;2023-02-15T08:36:44;53.83;;;30.13;;
29908;SDS011;36247;51.952;6.146;2023-02-15T08:39:10;57.42;;;30.48;;
29908;SDS011;36247;51.952;6.146;2023-02-15T08:41:37;55.15;;;30.45;;
29908;SDS011;36247;51.952;6.146;2023-02-15T08:44:04;58.42;;;30.55;;
29908;SDS011;36247;51.952;6.146;2023-02-15T08:46:33;59.38;;;31.60;;
29908;SDS011;36247;51.952;6.146;2023-02-15T08:49:00;55.15;;;31.40;;
29908;SDS011;36247;51.952;6.146;2023-02-15T08:51:28;57.67;;;31.92;;
29908;SDS011;36247;51.952;6.146;2023-02-15T08:53:56;56.88;;;30.83;;
29908;SDS011;36247;51.952;6.146;2023-02-15T08:56:28;55.80;;;29.85;;
29908;SDS011;36247;51.952;6.146;2023-02-15T09:01:23;46.78;;;27.80;;
29908;SDS011;36247;51.952;6.146;2023-02-15T09:03:58;51.67;;;29.08;;
29908;SDS011;36247;51.952;6.146;2023-02-15T09:06:29;51.17;;;27.80;;
29908;SDS011;36247;51.952;6.146;2023-02-15T09:08:55;52.53;;;29.55;;
29908;SDS011;36247;51.952;6.146;2023-02-15T09:11:22;53.60;;;28.98;;
29908;SDS011;36247;51.952;6.146;2023-02-15T09:13:53;49.03;;;27.52;;
29908;SDS011;36247;51.952;6.146;2023-02-15T09:16:21;51.45;;;29.48;;
29908;SDS011;36247;51.952;6.146;2023-02-15T09:18:47;54.45;;;29.83;;
29908;SDS011;36247;51.952;6.146;2023-02-15T09:21:16;53.17;;;29.48;;
29908;SDS011;36247;51.952;6.146;2023-02-15T09:23:44;53.28;;;28.85;;
29908;SDS011;36247;51.952;6.146;2023-02-15T09:26:16;52.40;;;28.92;;
29908;SDS011;36247;51.952;6.146;2023-02-15T09:28:43;51.58;;;27.98;;
29908;SDS011;36247;51.952;6.146;2023-02-15T09:33:40;51.08;;;27.38;;
29908;SDS011;36247;51.952;6.146;2023-02-15T09:36:23;51.85;;;27.85;;
29908;SDS011;36247;51.952;6.146;2023-02-15T09:38:55;51.40;;;28.55;;
29908;SDS011;36247;51.952;6.146;2023-02-15T09:52:57;47.90;;;26.58;;
29908;SDS011;36247;51.952;6.146;2023-02-15T10:00:31;49.75;;;27.80;;
29908;SDS011;36247;51.952;6.146;2023-02-15T10:09:00;57.17;;;29.40;;
29908;SDS011;36247;51.952;6.146;2023-02-15T10:28:09;49.65;;;27.90;;
29908;SDS011;36247;51.952;6.146;2023-02-15T10:30:53;54.78;;;27.17;;
29908;SDS011;36247;51.952;6.146;2023-02-15T10:33:43;48.47;;;27.40;;
29908;SDS011;36247;51.952;6.146;2023-02-15T10:52:25;45.10;;;26.52;;
29908;SDS011;36247;51.952;6.146;2023-02-15T10:57:37;53.50;;;28.38;;
29908;SDS011;36247;51.952;6.146;2023-02-15T11:06:09;41.85;;;26.02;;
29908;SDS011;36247;51.952;6.146;2023-02-15T11:08:40;43.47;;;26.00;;
29908;SDS011;36247;51.952;6.146;2023-02-15T11:11:11;44.35;;;26.38;;
29908;SDS011;36247;51.952;6.146;2023-02-15T11:13:45;42.60;;;24.95;;
29908;SDS011;36247;51.952;6.146;2023-02-15T11:16:17;39.63;;;24.17;;
29908;SDS011;36247;51.952;6.146;2023-02-15T11:19:01;40.70;;;25.92;;
29908;SDS011;36247;51.952;6.146;2023-02-15T11:21:42;38.17;;;24.83;;
29908;SDS011;36247;51.952;6.146;2023-02-15T11:24:14;44.38;;;25.23;;
29908;SDS011;36247;51.952;6.146;2023-02-15T11:32:31;43.80;;;26.70;;
29908;SDS011;36247;51.952;6.146;2023-02-15T11:35:01;41.22;;;25.23;;
29908;SDS011;36247;51.952;6.146;2023-02-15T11:37:36;39.72;;;25.70;;
29908;SDS011;36247;51.952;6.146;2023-02-15T11:40:03;42.30;;;27.05;;
29908;SDS011;36247;51.952;6.146;2023-02-15T11:42:43;43.08;;;25.02;;
29908;SDS011;36247;51.952;6.146;2023-02-15T11:47:59;42.33;;;26.77;;
29908;SDS011;36247;51.952;6.146;2023-02-15T11:50:27;42.75;;;25.77;;
29908;SDS011;36247;51.952;6.146;2023-02-15T11:53:00;43.00;;;26.40;;
29908;SDS011;36247;51.952;6.146;2023-02-15T11:55:28;41.20;;;25.88;;
29908;SDS011;36247;51.952;6.146;2023-02-15T11:58:06;40.15;;;25.75;;
29908;SDS011;36247;51.952;6.146;2023-02-15T12:00:43;37.35;;;24.17;;
29908;SDS011;36247;51.952;6.146;2023-02-15T12:03:16;38.58;;;25.25;;
29908;SDS011;36247;51.952;6.146;2023-02-15T12:05:47;38.38;;;24.55;;
29908;SDS011;36247;51.952;6.146;2023-02-15T12:08:21;39.75;;;25.63;;
29908;SDS011;36247;51.952;6.146;2023-02-15T12:13:24;36.53;;;25.23;;
29908;SDS011;36247;51.952;6.146;2023-02-15T12:15:51;40.83;;;26.25;;
29908;SDS011;36247;51.952;6.146;2023-02-15T12:18:35;39.25;;;25.25;;
29908;SDS011;36247;51.952;6.146;2023-02-15T12:21:11;41.28;;;25.13;;
29908;SDS011;36247;51.952;6.146;2023-02-15T12:23:41;39.85;;;26.60;;
29908;SDS011;36247;51.952;6.146;2023-02-15T12:26:22;39.55;;;25.02;;
29908;SDS011;36247;51.952;6.146;2023-02-15T12:28:49;35.38;;;24.33;;
29908;SDS011;36247;51.952;6.146;2023-02-15T12:34:02;42.08;;;24.75;;
29908;SDS011;36247;51.952;6.146;2023-02-15T12:36:44;42.60;;;25.75;;
29908;SDS011;36247;51.952;6.146;2023-02-15T12:41:45;41.88;;;26.38;;
29908;SDS011;36247;51.952;6.146;2023-02-15T12:44:26;40.88;;;27.25;;
29908;SDS011;36247;51.952;6.146;2023-02-15T12:47:17;39.63;;;25.13;;
29908;SDS011;36247;51.952;6.146;2023-02-15T12:49:44;45.92;;;25.35;;
29908;SDS011;36247;51.952;6.146;2023-02-15T12:52:28;39.90;;;25.80;;
29908;SDS011;36247;51.952;6.146;2023-02-15T12:54:54;43.40;;;26.05;;
29908;SDS011;36247;51.952;6.146;2023-02-15T13:05:51;45.20;;;26.73;;
29908;SDS011;36247;51.952;6.146;2023-02-15T13:10:39;45.17;;;26.08;;
29908;SDS011;36247;51.952;6.146;2023-02-15T13:13:10;42.53;;;25.90;;
29908;SDS011;36247;51.952;6.146;2023-02-15T13:15:44;40.97;;;26.38;;
29908;SDS011;36247;51.952;6.146;2023-02-15T13:18:29;40.53;;;26.42;;
29908;SDS011;36247;51.952;6.146;2023-02-15T13:20:59;43.95;;;27.05;;
29908;SDS011;36247;51.952;6.146;2023-02-15T13:23:47;44.17;;;26.92;;
29908;SDS011;36247;51.952;6.146;2023-02-15T13:26:20;41.03;;;26.38;;
29908;SDS011;36247;51.952;6.146;2023-02-15T13:28:48;45.13;;;27.52;;
29908;SDS011;36247;51.952;6.146;2023-02-15T13:31:19;43.53;;;27.42;;
29908;SDS011;36247;51.952;6.146;2023-02-15T13:33:52;47.95;;;28.08;;
29908;SDS011;36247;51.952;6.146;2023-02-15T13:36:29;44.05;;;28.40;;
29908;SDS011;36247;51.952;6.146;2023-02-15T13:41:51;50.22;;;29.27;;
29908;SDS011;36247;51.952;6.146;2023-02-15T13:52:29;47.47;;;27.90;;
29908;SDS011;36247;51.952;6.146;2023-02-15T13:58:13;46.05;;;28.50;;
29908;SDS011;36247;51.952;6.146;2023-02-15T14:04:22;42.92;;;26.65;;
29908;SDS011;36247;51.952;6.146;2023-02-15T14:24:43;43.03;;;28.33;;
29908;SDS011;36247;51.952;6.146;2023-02-15T14:29:48;46.55;;;28.85;;
29908;SDS011;36247;51.952;6.146;2023-02-15T14:35:14;43.95;;;28.20;;
29908;SDS011;36247;51.952;6.146;2023-02-15T14:48:56;46.35;;;30.25;;
29908;SDS011;36247;51.952;6.146;2023-02-15T14:54:08;48.08;;;28.90;;
29908;SDS011;36247;51.952;6.146;2023-02-15T14:56:35;55.28;;;29.33;;
29908;SDS011;36247;51.952;6.146;2023-02-15T15:01:38;54.63;;;29.17;;
29908;SDS011;36247;51.952;6.146;2023-02-15T15:04:05;47.17;;;30.10;;
29908;SDS011;36247;51.952;6.146;2023-02-15T15:06:34;52.03;;;29.98;;
29908;SDS011;36247;51.952;6.146;2023-02-15T15:14:54;52.28;;;30.58;;
29908;SDS011;36247;51.952;6.146;2023-02-15T15:22:30;48.05;;;29.60;;
29908;SDS011;36247;51.952;6.146;2023-02-15T15:24:58;45.03;;;29.25;;
29908;SDS011;36247;51.952;6.146;2023-02-15T15:27:52;59.20;;;30.83;;
29908;SDS011;36247;51.952;6.146;2023-02-15T15:49:34;53.38;;;30.13;;
29908;SDS011;36247;51.952;6.146;2023-02-15T15:52:02;50.53;;;30.15;;
29908;SDS011;36247;51.952;6.146;2023-02-15T15:54:38;56.85;;;30.25;;
29908;SDS011;36247;51.952;6.146;2023-02-15T15:57:05;53.03;;;28.92;;
29908;SDS011;36247;51.952;6.146;2023-02-15T15:59:43;53.60;;;31.55;;
29908;SDS011;36247;51.952;6.146;2023-02-15T16:02:14;50.08;;;28.02;;
29908;SDS011;36247;51.952;6.146;2023-02-15T16:04:42;57.80;;;31.48;;
29908;SDS011;36247;51.952;6.146;2023-02-15T16:09:58;56.35;;;32.25;;
29908;SDS011;36247;51.952;6.146;2023-02-15T16:12:30;53.83;;;32.00;;
29908;SDS011;36247;51.952;6.146;2023-02-15T16:14:57;57.65;;;31.63;;
29908;SDS011;36247;51.952;6.146;2023-02-15T16:17:28;47.92;;;30.27;;
29908;SDS011;36247;51.952;6.146;2023-02-15T16:20:05;51.38;;;30.15;;
29908;SDS011;36247;51.952;6.146;2023-02-15T16:22:44;52.67;;;29.90;;
29908;SDS011;36247;51.952;6.146;2023-02-15T16:27:55;49.88;;;29.67;;
29908;SDS011;36247;51.952;6.146;2023-02-15T16:30:24;57.83;;;33.63;;
29908;SDS011;36247;51.952;6.146;2023-02-15T16:33:07;56.38;;;32.08;;
29908;SDS011;36247;51.952;6.146;2023-02-15T16:35:36;48.95;;;29.98;;
29908;SDS011;36247;51.952;6.146;2023-02-15T16:38:03;56.75;;;29.67;;
29908;SDS011;36247;51.952;6.146;2023-02-15T16:43:15;53.13;;;31.20;;
29908;SDS011;36247;51.952;6.146;2023-02-15T16:45:45;54.80;;;31.15;;
29908;SDS011;36247;51.952;6.146;2023-02-15T16:48:16;53.42;;;30.73;;
29908;SDS011;36247;51.952;6.146;2023-02-15T16:50:52;56.83;;;32.35;;
29908;SDS011;36247;51.952;6.146;2023-02-15T16:53:24;54.78;;;31.48;;
29908;SDS011;36247;51.952;6.146;2023-02-15T16:55:53;56.00;;;32.58;;
29908;SDS011;36247;51.952;6.146;2023-02-15T16:58:24;58.63;;;32.80;;
29908;SDS011;36247;51.952;6.146;2023-02-15T17:00:57;53.08;;;31.52;;
29908;SDS011;36247;51.952;6.146;2023-02-15T17:03:25;56.15;;;32.25;;
29908;SDS011;36247;51.952;6.146;2023-02-15T17:05:52;57.22;;;31.90;;
29908;SDS011;36247;51.952;6.146;2023-02-15T17:29:57;58.70;;;30.95;;
29908;SDS011;36247;51.952;6.146;2023-02-15T17:32:30;58.67;;;33.78;;
29908;SDS011;36247;51.952;6.146;2023-02-15T17:37:46;48.08;;;28.95;;
29908;SDS011;36247;51.952;6.146;2023-02-15T17:40:24;51.58;;;30.10;;
29908;SDS011;36247;51.952;6.146;2023-02-15T17:42:51;55.28;;;28.70;;
29908;SDS011;36247;51.952;6.146;2023-02-15T17:45:17;54.70;;;28.38;;
29908;SDS011;36247;51.952;6.146;2023-02-15T17:47:44;51.60;;;30.90;;
29908;SDS011;36247;51.952;6.146;2023-02-15T17:50:22;52.97;;;29.08;;
29908;SDS011;36247;51.952;6.146;2023-02-15T17:52:49;52.22;;;30.73;;
29908;SDS011;36247;51.952;6.146;2023-02-15T17:55:17;49.95;;;29.45;;
29908;SDS011;36247;51.952;6.146;2023-02-15T17:57:59;55.42;;;31.40;;
29908;SDS011;36247;51.952;6.146;2023-02-15T18:00:26;59.35;;;30.40;;
29908;SDS011;36247;51.952;6.146;2023-02-15T18:03:10;59.42;;;32.67;;
29908;SDS011;36247;51.952;6.146;2023-02-15T18:05:55;56.30;;;31.80;;
29908;SDS011;36247;51.952;6.146;2023-02-15T18:08:40;60.33;;;32.40;;
29908;SDS011;36247;51.952;6.146;2023-02-15T18:11:24;60.25;;;33.50;;
29908;SDS011;36247;51.952;6.146;2023-02-15T18:14:00;55.60;;;32.15;;
29908;SDS011;36247;51.952;6.146;2023-02-15T18:16:27;66.15;;;36.40;;
29908;SDS011;36247;51.952;6.146;2023-02-15T18:18:55;56.05;;;32.53;;
29908;SDS011;36247;51.952;6.146;2023-02-15T18:21:24;61.78;;;32.10;;
29908;SDS011;36247;51.952;6.146;2023-02-15T18:23:50;55.83;;;31.70;;
29908;SDS011;36247;51.952;6.146;2023-02-15T18:26:17;66.65;;;34.88;;
29908;SDS011;36247;51.952;6.146;2023-02-15T18:28:44;65.13;;;34.85;;
29908;SDS011;36247;51.952;6.146;2023-02-15T18:31:10;63.10;;;33.58;;
29908;SDS011;36247;51.952;6.146;2023-02-15T18:33:46;67.95;;;35.97;;
29908;SDS011;36247;51.952;6.146;2023-02-15T18:36:28;66.30;;;34.60;;